Time;durP1;ratioP1;P1;durP2;ratioP2;P2;SDS_P1;SDS_P2;PMS_P1;PMS_P2;Temp;Humidity;BMP_temperature;BMP_pressure;BME280_temperature;BME280_humidity;BME280_pressure;Samples;Min_cycle;Max_cycle;Signal;HPM_P1;HPM_P2
2022/12/28 00:00:25;;;;;;;10.77;6.90;;;;;;;2.36;79.88;93638.31;2055055;69;20142;-76
2022/12/28 00:02:50;;;;;;;10.88;6.25;;;;;;;2.19;80.61;93638.63;2057171;69;20663;-74
2022/12/28 00:05:19;;;;;;;10.20;6.45;;;;;;;2.21;81.41;93642.38;2055371;69;20157;-76
2022/12/28 00:07:44;;;;;;;9.98;6.38;;;;;;;2.20;80.30;93629.75;2056298;69;20569;-75
2022/12/28 00:10:10;;;;;;;9.93;6.28;;;;;;;2.18;80.37;93621.19;2057053;69;20577;-74
2022/12/28 00:12:35;;;;;;;9.52;6.13;;;;;;;2.18;79.88;93621.19;2056755;69;20293;-75
2022/12/28 00:15:01;;;;;;;10.00;6.05;;;;;;;2.12;80.17;93619.81;2056559;69;20146;-74
2022/12/28 00:17:27;;;;;;;11.55;6.05;;;;;;;2.18;80.11;93626.00;2056686;69;20585;-75
2022/12/28 00:19:53;;;;;;;10.18;5.95;;;;;;;2.13;79.87;93624.09;2057149;69;20261;-74
2022/12/28 00:22:19;;;;;;;9.88;6.22;;;;;;;2.21;80.50;93620.13;2056833;69;20239;-74
2022/12/28 00:24:44;;;;;;;10.40;6.00;;;;;;;2.09;80.76;93610.50;2055082;69;20184;-74
2022/12/28 00:27:10;;;;;;;9.73;5.65;;;;;;;2.03;80.54;93616.19;2057227;69;20525;-73
2022/12/28 00:29:36;;;;;;;10.15;5.95;;;;;;;2.02;80.61;93602.84;2056535;69;20606;-73
2022/12/28 00:32:04;;;;;;;10.38;5.85;;;;;;;2.00;79.88;93606.13;2056709;69;20173;-73
2022/12/28 00:34:30;;;;;;;8.27;4.95;;;;;;;1.96;79.59;93602.16;2055689;69;20197;-75
2022/12/28 00:36:55;;;;;;;7.70;4.60;;;;;;;1.86;79.62;93601.84;2056675;69;20152;-73
2022/12/28 00:39:21;;;;;;;9.52;4.60;;;;;;;1.83;80.13;93594.56;2056300;69;20157;-75
2022/12/28 00:41:47;;;;;;;6.05;3.90;;;;;;;1.93;80.02;93601.22;2056267;69;20188;-74
2022/12/28 00:44:13;;;;;;;8.05;4.90;;;;;;;1.74;79.86;93587.44;2056317;69;20156;-74
2022/12/28 00:46:38;;;;;;;9.25;5.32;;;;;;;1.77;81.48;93589.13;2055660;69;20134;-74
2022/12/28 00:49:04;;;;;;;7.53;4.72;;;;;;;1.82;80.78;93584.00;2056488;69;20185;-74
2022/12/28 00:51:32;;;;;;;6.97;4.13;;;;;;;1.88;81.27;93590.19;2054707;69;20158;-74
2022/12/28 00:53:57;;;;;;;6.40;3.95;;;;;;;1.97;80.82;93584.22;2056504;69;20177;-74
2022/12/28 00:56:23;;;;;;;8.15;4.95;;;;;;;1.89;80.71;93586.91;2055797;69;20169;-74
2022/12/28 00:58:49;;;;;;;8.60;4.55;;;;;;;1.84;80.08;93582.22;2056896;69;20137;-74
2022/12/28 01:01:20;;;;;;;6.18;4.18;;;;;;;1.83;80.90;93580.69;2056323;69;20189;-74
2022/12/28 01:03:46;;;;;;;7.38;4.50;;;;;;;1.91;80.06;93580.81;2056612;69;20161;-74
2022/12/28 01:06:14;;;;;;;5.75;4.07;;;;;;;1.96;80.62;93571.63;2055950;69;20134;-74
2022/12/28 01:08:41;;;;;;;5.43;3.55;;;;;;;1.88;78.97;93577.09;2056377;69;20228;-74
2022/12/28 01:11:08;;;;;;;6.03;3.67;;;;;;;1.72;80.28;93578.88;2055506;69;20649;-73
2022/12/28 01:13:34;;;;;;;7.00;3.97;;;;;;;1.82;79.82;93587.53;2055599;69;20181;-76
2022/12/28 01:16:08;;;;;;;7.05;4.43;;;;;;;1.73;80.43;93591.47;2056656;69;20146;-75
2022/12/28 01:18:34;;;;;;;6.32;3.90;;;;;;;1.71;78.68;93596.06;2056822;69;20617;-74
2022/12/28 01:21:07;;;;;;;6.82;3.70;;;;;;;1.66;79.15;93583.03;2056330;69;20152;-74
2022/12/28 01:23:33;;;;;;;7.47;4.18;;;;;;;1.63;79.48;93578.53;2055669;69;20180;-73
2022/12/28 01:26:02;;;;;;;6.25;3.58;;;;;;;1.57;79.87;93569.56;2056441;69;20153;-74
2022/12/28 01:28:29;;;;;;;6.22;3.95;;;;;;;1.67;79.80;93574.16;2056006;69;20162;-73
2022/12/28 01:31:01;;;;;;;8.30;4.50;;;;;;;1.18;81.17;93576.50;2056433;69;20244;-74
2022/12/28 01:33:26;;;;;;;8.98;4.10;;;;;;;1.36;81.46;93578.47;2059267;69;20237;-74
2022/12/28 01:35:52;;;;;;;6.72;4.15;;;;;;;1.42;80.84;93581.94;2057218;69;20145;-74
2022/12/28 01:38:17;;;;;;;5.75;3.92;;;;;;;1.37;79.91;93593.84;2056179;69;20182;-74
2022/12/28 01:40:43;;;;;;;6.35;4.00;;;;;;;1.44;79.43;93596.00;2056378;69;20154;-75
2022/12/28 01:43:13;;;;;;;6.10;3.75;;;;;;;1.48;79.18;93590.91;2056868;69;20177;-74
2022/12/28 01:45:40;;;;;;;5.85;3.65;;;;;;;1.33;78.96;93582.34;2055838;69;20146;-73
2022/12/28 01:48:18;;;;;;;6.90;3.63;;;;;;;1.16;80.49;93576.31;2056599;69;20158;-73
2022/12/28 01:50:44;;;;;;;6.55;3.80;;;;;;;1.22;80.11;93577.69;2055803;69;20157;-73
2022/12/28 01:53:10;;;;;;;6.50;3.78;;;;;;;1.19;80.19;93564.91;2057256;69;20150;-73
2022/12/28 01:55:40;;;;;;;5.00;3.35;;;;;;;1.28;79.90;93563.72;2056692;69;20149;-73
2022/12/28 01:58:13;;;;;;;5.80;3.58;;;;;;;1.22;79.75;93555.50;2056607;69;20228;-76
2022/12/28 02:00:40;;;;;;;5.63;3.22;;;;;;;1.23;79.15;93568.09;2055253;69;20149;-75
2022/12/28 02:03:13;;;;;;;5.30;3.22;;;;;;;1.15;79.81;93567.22;2056973;69;20144;-73
2022/12/28 02:05:45;;;;;;;5.05;3.35;;;;;;;1.22;80.28;93557.53;2056949;69;20177;-73
2022/12/28 02:08:21;;;;;;;;;;;;;;;1.22;80.08;93549.97;2057567;69;20215;-74
2022/12/28 02:10:46;;;;;;;5.80;3.47;;;;;;;1.20;79.45;93554.56;2054966;69;20042;-74
2022/12/28 02:13:15;;;;;;;5.90;3.03;;;;;;;1.24;79.68;93547.41;2057643;69;20601;-73
2022/12/28 02:15:41;;;;;;;3.65;2.30;;;;;;;1.42;80.23;93537.53;2057330;69;20180;-74
2022/12/28 02:18:08;;;;;;;5.50;2.38;;;;;;;1.37;79.88;93549.44;2060948;69;20161;-74
2022/12/28 02:21:04;;;;;;;5.10;3.08;;;;;;;0.97;81.33;93551.38;2061271;69;20607;-73
2022/12/28 02:23:37;;;;;;;5.03;3.05;;;;;;;1.15;80.07;93535.97;2058455;69;20605;-72
2022/12/28 02:26:41;;;;;;;4.68;2.42;;;;;;;1.31;80.29;93543.25;2056540;69;20253;-73
2022/12/28 02:29:31;;;;;;;2.53;1.80;;;;;;;1.30;80.88;93541.78;2057688;69;20150;-73
2022/12/28 02:32:14;;;;;;;5.30;2.22;;;;;;;1.40;79.49;93540.06;2057017;69;20241;-73
2022/12/28 02:34:58;;;;;;;4.95;2.13;;;;;;;1.48;79.32;93535.41;2056813;69;20294;-74
2022/12/28 02:37:53;;;;;;;3.30;1.80;;;;;;;1.38;78.45;93530.81;2056876;69;20279;-73
2022/12/28 02:40:23;;;;;;;4.43;2.10;;;;;;;1.39;79.01;93523.97;2056386;69;20181;-73
2022/12/28 02:42:53;;;;;;;4.18;1.90;;;;;;;1.50;79.24;93523.75;2056334;69;20264;-74
2022/12/28 02:51:08;;;;;;;4.80;2.45;;;;;;;1.21;79.77;93519.97;2056697;69;20342;-73
2022/12/28 02:53:54;;;;;;;4.00;2.40;;;;;;;1.26;80.07;93519.88;2057293;69;20183;-73
2022/12/28 02:56:54;;;;;;;4.22;2.40;;;;;;;1.31;79.48;93506.44;2055649;69;20149;-73
2022/12/28 02:59:20;;;;;;;3.10;1.73;;;;;;;1.41;79.04;93507.53;2056691;69;20158;-73
2022/12/28 03:02:01;;;;;;;3.38;1.95;;;;;;;1.36;78.40;93502.81;2056610;69;20162;-72
2022/12/28 03:04:55;;;;;;;2.63;1.70;;;;;;;1.36;78.92;93503.56;2056108;69;20256;-73
2022/12/28 03:10:43;;;;;;;6.05;2.03;;;;;;;1.27;79.20;93493.63;2055137;69;20585;-74
2022/12/28 03:16:27;;;;;;;3.95;2.15;;;;;;;1.17;78.37;93489.78;2057491;69;20162;-74
2022/12/28 03:33:06;;;;;;;3.35;2.13;;;;;;;1.12;80.40;93493.41;2056060;69;20189;-74
2022/12/28 03:35:38;;;;;;;4.45;2.30;;;;;;;1.19;79.92;93500.34;2056298;69;20220;-74
2022/12/28 03:38:04;;;;;;;3.60;2.30;;;;;;;0.92;79.68;93494.75;2056787;69;20234;-73
2022/12/28 03:40:33;;;;;;;4.30;2.00;;;;;;;1.14;79.66;93490.09;2054103;69;20247;-76
2022/12/28 03:46:12;;;;;;;5.82;2.00;;;;;;;1.35;79.33;93459.72;2055748;69;20184;-74
2022/12/28 03:48:40;;;;;;;5.13;2.00;;;;;;;1.32;79.78;93449.69;2053582;69;20204;-74
2022/12/28 03:51:07;;;;;;;2.70;1.70;;;;;;;1.30;79.38;93441.91;2053703;69;20557;-75
2022/12/28 03:53:42;;;;;;;2.38;1.60;;;;;;;1.34;79.23;93442.31;2054653;69;20521;-73
2022/12/28 03:56:15;;;;;;;2.80;1.70;;;;;;;1.45;78.20;93439.31;2052697;69;20451;-73
2022/12/28 03:58:43;;;;;;;3.38;2.10;;;;;;;1.40;77.76;93436.66;2054713;69;20158;-74
2022/12/28 04:01:09;;;;;;;6.35;3.50;;;;;;;1.40;77.99;93433.91;2053879;69;20185;-73
2022/12/28 04:03:37;;;;;;;4.93;3.08;;;;;;;1.46;77.49;93429.72;2053389;69;20590;-74
2022/12/28 04:06:12;;;;;;;3.30;2.05;;;;;;;1.58;76.75;93421.94;2055000;69;20156;-74
2022/12/28 04:08:38;;;;;;;2.33;1.48;;;;;;;1.75;76.29;93425.13;2055445;69;20173;-75
2022/12/28 04:11:05;;;;;;;2.95;1.70;;;;;;;1.68;76.80;93425.00;2053901;69;20184;-74
2022/12/28 04:13:31;;;;;;;3.17;1.55;;;;;;;1.68;77.17;93420.22;2053592;69;20174;-74
2022/12/28 04:16:12;;;;;;;1.92;1.38;;;;;;;1.69;77.17;93416.13;2054867;69;20566;-73
2022/12/28 04:18:40;;;;;;;11.10;3.67;;;;;;;1.59;77.21;93403.25;2050625;70;20177;-74
2022/12/28 04:21:07;;;;;;;18.60;6.80;;;;;;;1.70;77.34;93401.00;2053129;69;20184;-74
2022/12/28 04:23:33;;;;;;;5.07;2.50;;;;;;;1.71;77.34;93402.50;2054472;69;20640;-74
2022/12/28 04:26:22;;;;;;;5.05;1.65;;;;;;;1.75;76.20;93394.59;2052710;69;20162;-74
2022/12/28 04:28:50;;;;;;;2.15;1.58;;;;;;;1.93;76.34;93392.19;2054077;69;20244;-75
2022/12/28 04:31:19;;;;;;;3.75;1.70;;;;;;;1.99;76.31;93407.44;2056456;69;20616;-74
2022/12/28 04:33:52;;;;;;;4.07;1.90;;;;;;;1.87;76.76;93420.06;2055459;69;20177;-74
2022/12/28 04:36:17;;;;;;;4.35;1.92;;;;;;;1.77;76.71;93444.75;2054549;69;20645;-75
2022/12/28 04:38:45;;;;;;;2.08;1.73;;;;;;;1.52;76.64;93440.72;2053657;69;20142;-75
2022/12/28 04:41:11;;;;;;;3.45;1.70;;;;;;;1.55;77.45;93439.66;2053961;69;20153;-75
2022/12/28 04:43:38;;;;;;;3.70;1.73;;;;;;;1.66;76.71;93438.69;2054996;69;20161;-75
2022/12/28 04:46:06;;;;;;;3.40;1.90;;;;;;;1.67;76.98;93434.63;2054127;69;20141;-74
2022/12/28 04:48:32;;;;;;;3.70;2.08;;;;;;;1.65;76.53;93437.94;2054109;69;20601;-74
2022/12/28 04:51:07;;;;;;;2.30;1.60;;;;;;;1.58;77.04;93438.59;2053943;69;20272;-74
2022/12/28 04:53:38;;;;;;;3.55;1.60;;;;;;;1.59;76.94;93425.44;2055206;69;20242;-74
2022/12/28 04:56:05;;;;;;;2.97;1.80;;;;;;;1.62;76.79;93421.63;2053821;69;20170;-74
2022/12/28 04:58:31;;;;;;;3.45;1.85;;;;;;;1.54;76.49;93415.97;2053723;69;20176;-73
2022/12/28 05:01:09;;;;;;;2.80;1.80;;;;;;;1.43;76.53;93413.41;2055045;69;20177;-74
2022/12/28 05:03:36;;;;;;;4.40;1.88;;;;;;;1.38;77.06;93414.28;2055498;69;20260;-75
2022/12/28 05:06:07;;;;;;;7.95;3.88;;;;;;;1.30;77.49;93410.63;2050944;69;20130;-74
2022/12/28 05:08:37;;;;;;;6.97;4.30;;;;;;;1.35;77.69;93418.09;2056616;69;20250;-74
2022/12/28 05:11:05;;;;;;;9.25;4.72;;;;;;;1.29;77.12;93420.25;2055271;69;20156;-75
2022/12/28 05:13:33;;;;;;;9.35;5.78;;;;;;;1.26;77.29;93416.50;2054383;69;20208;-74
2022/12/28 05:16:22;;;;;;;8.30;5.38;;;;;;;1.18;77.33;93413.59;2054097;69;20173;-75
2022/12/28 05:18:48;;;;;;;8.80;5.40;;;;;;;1.16;77.26;93416.19;2056124;69;20169;-74
2022/12/28 05:21:18;;;;;;;8.73;5.03;;;;;;;1.16;76.78;93420.97;2054234;69;20514;-74
2022/12/28 05:23:44;;;;;;;8.50;5.10;;;;;;;1.18;76.87;93426.72;2055749;69;20216;-75
2022/12/28 05:26:15;;;;;;;7.38;4.82;;;;;;;1.11;76.79;93430.91;2055949;69;20169;-75
2022/12/28 05:28:41;;;;;;;5.30;3.08;;;;;;;0.98;76.63;93430.88;2056009;69;20149;-75
2022/12/28 05:31:10;;;;;;;7.15;4.20;;;;;;;0.90;78.44;93433.53;2054828;69;20161;-75
2022/12/28 05:33:36;;;;;;;11.82;6.95;;;;;;;0.65;78.30;93432.94;2056751;69;20697;-74
2022/12/28 05:36:13;;;;;;;10.05;5.93;;;;;;;0.89;77.33;93426.50;2057174;69;20233;-76
2022/12/28 05:38:39;;;;;;;16.08;9.55;;;;;;;0.86;77.37;93433.09;2056765;69;20272;-74
2022/12/28 05:41:07;;;;;;;18.70;11.18;;;;;;;0.96;77.70;93425.88;2056321;69;20165;-74
2022/12/28 05:43:34;;;;;;;14.90;9.48;;;;;;;0.96;77.60;93439.72;2055301;69;20150;-75
2022/12/28 05:46:07;;;;;;;13.30;7.72;;;;;;;0.98;77.61;93426.06;2056064;69;20146;-74
2022/12/28 05:48:35;;;;;;;5.20;2.90;;;;;;;0.80;78.19;93432.44;2055773;69;20217;-75
2022/12/28 05:51:06;;;;;;;10.00;5.53;;;;;;;0.93;78.17;93434.50;2055984;69;20498;-75
2022/12/28 05:53:33;;;;;;;13.40;7.55;;;;;;;0.97;78.09;93412.75;2056910;69;20138;-75
2022/12/28 05:56:05;;;;;;;13.00;7.15;;;;;;;0.86;78.42;93418.47;2054530;69;20172;-75
2022/12/28 05:58:31;;;;;;;13.93;8.20;;;;;;;0.91;78.36;93414.84;2056719;69;20609;-74
2022/12/28 06:01:10;;;;;;;15.70;8.85;;;;;;;0.77;78.11;93408.53;2055875;69;20169;-75
2022/12/28 06:03:37;;;;;;;12.30;7.10;;;;;;;0.84;77.58;93407.94;2056803;69;20212;-74
2022/12/28 06:06:09;;;;;;;10.73;6.60;;;;;;;0.74;78.64;93410.38;2055424;69;20175;-73
2022/12/28 06:08:35;;;;;;;7.13;3.60;;;;;;;0.83;77.75;93402.94;2055781;69;20195;-73
2022/12/28 06:11:03;;;;;;;5.35;2.20;;;;;;;0.83;77.37;93406.44;2055853;69;20146;-74
2022/12/28 06:13:31;;;;;;;4.22;2.05;;;;;;;0.95;76.94;93401.44;2054957;69;20138;-74
2022/12/28 06:15:57;;;;;;;3.80;1.48;;;;;;;0.89;76.60;93407.06;2055484;69;20298;-75
2022/12/28 06:18:27;;;;;;;2.55;1.40;;;;;;;0.90;76.56;93405.06;2055235;69;20177;-74
2022/12/28 06:20:52;;;;;;;8.23;4.93;;;;;;;0.63;77.59;93399.44;2055831;69;20185;-74
2022/12/28 06:23:18;;;;;;;7.22;3.88;;;;;;;0.60;77.28;93405.31;2057005;69;20182;-75
2022/12/28 06:25:44;;;;;;;8.25;3.67;;;;;;;0.57;78.26;93412.66;2057270;69;20498;-76
2022/12/28 06:28:09;;;;;;;8.82;4.30;;;;;;;0.56;78.02;93404.88;2055248;69;20162;-76
2022/12/28 06:30:36;;;;;;;12.98;5.93;;;;;;;0.62;77.80;93400.00;2055165;69;20302;-75
2022/12/28 06:33:02;;;;;;;183.85;48.70;;;;;;;0.57;78.10;93398.06;2056154;69;20182;-74
2022/12/28 06:35:27;;;;;;;80.85;23.08;;;;;;;0.78;77.75;93396.19;2057693;69;20589;-75
2022/12/28 06:37:53;;;;;;;50.35;14.43;;;;;;;0.68;76.19;93397.88;2055390;69;20271;-75
2022/12/28 06:40:21;;;;;;;11.70;5.18;;;;;;;0.82;75.18;93401.41;2055475;69;20166;-75
2022/12/28 06:42:47;;;;;;;22.20;8.38;;;;;;;0.85;75.11;93395.56;2055771;69;20158;-75
2022/12/28 06:45:13;;;;;;;21.25;8.90;;;;;;;0.72;75.55;93392.75;2055118;69;20578;-75
2022/12/28 06:47:38;;;;;;;20.73;9.38;;;;;;;0.77;76.76;93384.34;2055722;69;20170;-75
2022/12/28 06:50:05;;;;;;;12.02;6.20;;;;;;;0.73;76.46;93386.69;2057281;69;20205;-75
2022/12/28 06:52:31;;;;;;;7.30;3.58;;;;;;;0.79;75.79;93383.81;2053489;69;20204;-75
2022/12/28 06:54:57;;;;;;;2.60;1.73;;;;;;;0.81;75.91;93386.81;2057120;69;20227;-75
2022/12/28 06:57:22;;;;;;;3.50;1.80;;;;;;;0.84;75.09;93394.06;2056673;69;20162;-76
2022/12/28 06:59:48;;;;;;;5.05;2.13;;;;;;;0.82;75.61;93401.41;2056271;69;20244;-77
2022/12/28 07:02:13;;;;;;;5.10;2.90;;;;;;;0.93;75.61;93398.44;2055960;69;20477;-77
2022/12/28 07:04:39;;;;;;;9.63;4.65;;;;;;;0.88;75.88;93408.38;2055171;69;20241;-77
2022/12/28 07:07:07;;;;;;;16.95;7.47;;;;;;;0.52;77.27;93421.81;2056887;69;20285;-75
2022/12/28 07:09:32;;;;;;;14.43;7.55;;;;;;;0.68;76.75;93409.69;2055763;69;20173;-75
2022/12/28 07:11:58;;;;;;;13.85;6.65;;;;;;;0.73;76.62;93417.19;2056642;69;20545;-76
2022/12/28 07:14:23;;;;;;;16.85;7.82;;;;;;;0.65;76.35;93413.53;2055711;69;20162;-76
2022/12/28 07:16:49;;;;;;;19.83;9.50;;;;;;;0.53;77.39;93412.22;2054947;69;20134;-76
2022/12/28 07:19:15;;;;;;;17.50;9.02;;;;;;;0.74;76.20;93415.16;2057331;69;20177;-75
2022/12/28 07:21:40;;;;;;;12.93;6.43;;;;;;;0.74;76.04;93409.63;2054815;69;20189;-73
2022/12/28 07:24:06;;;;;;;14.50;7.45;;;;;;;0.62;75.96;93413.84;2053391;69;20181;-73
2022/12/28 07:26:34;;;;;;;15.82;6.47;;;;;;;0.72;76.17;93417.69;2056714;69;20165;-75
2022/12/28 07:29:02;;;;;;;12.32;6.55;;;;;;;0.49;76.33;93420.84;2055814;69;20149;-76
2022/12/28 07:31:30;;;;;;;13.55;8.05;;;;;;;0.65;76.55;93413.53;2057335;69;20253;-74
2022/12/28 07:33:58;;;;;;;15.27;8.25;;;;;;;0.61;76.74;93418.66;2062002;69;20177;-73
2022/12/28 07:36:25;;;;;;;12.93;7.30;;;;;;;0.52;76.33;93410.72;2060704;69;20339;-74
2022/12/28 07:38:51;;;;;;;12.15;7.22;;;;;;;0.51;77.22;93414.78;2059877;69;20530;-75
2022/12/28 07:41:20;;;;;;;14.63;8.57;;;;;;;0.58;76.44;93414.16;2058447;69;20157;-74
2022/12/28 07:43:46;;;;;;;16.15;9.40;;;;;;;0.56;76.73;93416.72;2053798;69;20145;-73
2022/12/28 07:46:14;;;;;;;14.65;8.93;;;;;;;0.52;76.62;93407.97;2054690;69;20224;-75
2022/12/28 07:48:41;;;;;;;20.00;11.05;;;;;;;0.65;77.12;93421.13;2056784;69;20157;-76
2022/12/28 07:51:09;;;;;;;28.42;13.65;;;;;;;0.64;77.58;93423.13;2055608;69;20154;-76
2022/12/28 07:53:36;;;;;;;20.88;10.35;;;;;;;0.65;77.68;93410.03;2056127;69;20510;-75
2022/12/28 07:56:02;;;;;;;20.25;10.10;;;;;;;0.90;77.60;93414.13;2055937;69;20142;-74
2022/12/28 07:58:28;;;;;;;15.73;9.02;;;;;;;0.98;77.12;93422.56;2056363;69;20169;-73
2022/12/28 08:01:02;;;;;;;17.17;8.80;;;;;;;1.04;77.61;93416.91;2055925;69;20234;-75
2022/12/28 08:03:28;;;;;;;22.25;10.82;;;;;;;0.98;77.83;93403.16;2055576;69;20211;-73
2022/12/28 08:05:54;;;;;;;16.92;9.68;;;;;;;0.99;78.00;93407.41;2055696;69;20562;-73
2022/12/28 08:08:19;;;;;;;21.08;10.93;;;;;;;1.06;77.59;93415.09;2054156;69;20205;-74
2022/12/28 08:10:45;;;;;;;22.50;11.80;;;;;;;1.10;77.48;93412.78;2054331;69;20225;-73
2022/12/28 08:13:10;;;;;;;25.23;12.80;;;;;;;1.04;78.18;93414.13;2055793;69;20137;-74
2022/12/28 08:15:36;;;;;;;27.25;13.40;;;;;;;1.21;77.70;93407.00;2054404;69;20624;-74
2022/12/28 08:18:02;;;;;;;19.92;9.02;;;;;;;1.27;75.77;93407.63;2055019;69;20156;-73
2022/12/28 08:20:28;;;;;;;11.23;4.80;;;;;;;1.22;73.32;93402.94;2056559;69;20194;-72
2022/12/28 08:22:53;;;;;;;10.05;4.60;;;;;;;1.57;73.82;93401.03;2055448;69;20149;-73
2022/12/28 08:25:19;;;;;;;11.30;5.75;;;;;;;1.76;73.34;93403.66;2054458;69;20522;-73
2022/12/28 08:27:45;;;;;;;9.93;5.35;;;;;;;1.81;73.08;93411.13;2055056;69;20498;-74
2022/12/28 08:30:11;;;;;;;16.35;6.38;;;;;;;1.99;73.36;93406.69;2056328;69;20241;-73
2022/12/28 08:32:36;;;;;;;13.88;7.32;;;;;;;2.00;72.93;93408.19;2056592;69;20142;-74
2022/12/28 08:35:02;;;;;;;21.20;10.85;;;;;;;2.12;73.87;93425.38;2057162;69;20510;-73
2022/12/28 08:37:28;;;;;;;20.60;10.68;;;;;;;2.10;73.80;93425.16;2056741;69;20161;-73
2022/12/28 08:39:54;;;;;;;19.48;10.15;;;;;;;2.10;73.69;93423.13;2055059;69;20228;-74
2022/12/28 08:42:19;;;;;;;17.67;8.50;;;;;;;2.14;74.32;93414.47;2056101;69;20144;-75
2022/12/28 08:44:46;;;;;;;11.00;5.40;;;;;;;2.22;71.38;93418.06;2056302;69;20166;-73
2022/12/28 08:47:11;;;;;;;9.98;5.30;;;;;;;2.26;72.91;93408.13;2056716;69;20477;-73
2022/12/28 08:49:37;;;;;;;7.75;4.10;;;;;;;2.10;71.99;93411.25;2055498;69;20172;-73
2022/12/28 08:52:03;;;;;;;16.75;13.35;;;;;;;2.23;71.70;93409.19;2056600;69;20205;-73
2022/12/28 08:54:28;;;;;;;10.75;5.10;;;;;;;2.12;71.19;93415.00;2055664;69;20270;-74
2022/12/28 08:56:54;;;;;;;11.85;5.93;;;;;;;2.35;71.75;93422.84;2054821;69;20156;-72
2022/12/28 08:59:19;;;;;;;12.40;6.30;;;;;;;2.27;73.53;93417.94;2056795;69;20156;-72
2022/12/28 09:01:46;;;;;;;10.50;5.47;;;;;;;2.59;74.43;93419.75;2055064;69;20161;-73
2022/12/28 09:04:16;;;;;;;15.50;6.82;;;;;;;2.48;72.58;93420.75;2054854;69;20277;-74
2022/12/28 09:06:41;;;;;;;13.45;6.93;;;;;;;2.99;72.61;93417.50;2055843;69;20598;-74
2022/12/28 09:09:11;;;;;;;11.02;6.22;;;;;;;3.03;70.86;93412.34;2055591;69;20305;-75
2022/12/28 09:11:38;;;;;;;10.75;6.03;;;;;;;3.30;70.32;93403.81;2055538;69;20149;-73
2022/12/28 09:14:07;;;;;;;11.18;5.65;;;;;;;3.18;68.27;93408.19;2056310;69;20241;-75
2022/12/28 09:16:33;;;;;;;9.15;4.32;;;;;;;3.23;67.00;93405.25;2056360;69;20227;-75
2022/12/28 09:19:00;;;;;;;9.43;4.93;;;;;;;3.81;67.99;93401.13;2056277;69;20154;-75
2022/12/28 09:21:29;;;;;;;10.23;5.30;;;;;;;4.07;64.05;93404.94;2054600;69;20193;-75
2022/12/28 09:23:55;;;;;;;9.10;5.25;;;;;;;4.58;64.97;93399.31;2053203;69;20228;-74
2022/12/28 09:26:26;;;;;;;6.93;3.92;;;;;;;5.17;65.50;93400.47;2053731;69;20616;-75
2022/12/28 09:28:59;;;;;;;8.23;4.30;;;;;;;5.31;61.30;93399.72;2056612;69;20154;-75
2022/12/28 09:31:27;;;;;;;6.75;4.10;;;;;;;5.39;58.63;93396.91;2057619;69;20267;-75
2022/12/28 09:34:00;;;;;;;14.00;7.25;;;;;;;5.36;62.90;93395.25;2057377;69;20254;-76
2022/12/28 09:36:37;;;;;;;15.93;8.63;;;;;;;5.65;62.01;93386.63;2057409;69;20170;-76
2022/12/28 09:39:06;;;;;;;13.60;7.38;;;;;;;6.15;61.58;93382.03;2057392;69;20229;-75
2022/12/28 09:41:54;;;;;;;10.70;6.00;;;;;;;6.53;57.78;93381.06;2057416;69;20473;-76
2022/12/28 09:44:31;;;;;;;7.97;4.32;;;;;;;7.10;57.98;93383.88;2055496;69;20196;-76
2022/12/28 09:47:20;;;;;;;11.43;6.90;;;;;;;6.76;57.42;93383.72;2054185;69;20134;-75
2022/12/28 09:50:05;;;;;;;12.68;6.45;;;;;;;6.98;56.10;93384.88;2054171;69;20248;-76
2022/12/28 09:53:14;;;;;;;10.88;6.10;;;;;;;7.11;54.86;93376.22;2054151;69;20621;-77
2022/12/28 09:55:44;;;;;;;8.52;5.10;;;;;;;6.60;57.21;93377.50;2046027;70;20162;-78
2022/12/28 09:58:14;;;;;;;9.35;5.47;;;;;;;6.29;55.93;93385.31;2048047;70;20267;-75
2022/12/28 10:00:45;;;;;;;11.13;5.53;;;;;;;7.19;56.10;93376.88;2049780;70;20245;-76
2022/12/28 10:03:17;;;;;;;9.98;5.85;;;;;;;7.46;56.25;93365.06;2047441;70;20222;-75
2022/12/28 10:05:43;;;;;;;9.82;5.80;;;;;;;7.68;55.71;93369.69;2050200;70;20150;-75
2022/12/28 10:08:13;;;;;;;11.95;5.55;;;;;;;7.83;54.75;93365.97;2050126;70;20193;-76
2022/12/28 10:10:41;;;;;;;11.27;5.85;;;;;;;7.84;54.29;93354.22;2050123;70;20606;-75
2022/12/28 10:13:19;;;;;;;9.98;4.38;;;;;;;7.64;52.17;93346.94;2049832;70;20626;-75
2022/12/28 10:15:46;;;;;;;7.63;4.07;;;;;;;7.70;51.57;93347.44;2049910;70;20554;-76
2022/12/28 10:18:14;;;;;;;17.17;10.48;;;;;;;5.37;58.83;93329.72;2050289;70;20138;-77
2022/12/28 10:20:43;;;;;;;20.70;13.55;;;;;;;6.39;58.33;93330.25;2050254;70;20180;-77
2022/12/28 10:23:14;;;;;;;24.45;11.07;;;;;;;7.16;57.38;93329.69;2050282;70;20150;-76
2022/12/28 10:25:41;;;;;;;6.20;4.20;;;;;;;6.98;57.96;93321.25;2050130;70;20166;-78
2022/12/28 10:28:09;;;;;;;10.95;4.40;;;;;;;7.03;57.43;93323.06;2049910;70;20182;-76
2022/12/28 10:30:44;;;;;;;16.20;8.93;;;;;;;6.50;56.99;93315.06;2050012;70;20575;-77
2022/12/28 10:33:16;;;;;;;9.93;5.07;;;;;;;7.13;55.42;93320.34;2053911;70;20146;-75
2022/12/28 10:35:49;;;;;;;22.77;12.68;;;;;;;7.50;56.95;93318.50;2054200;69;20167;-77
2022/12/28 10:38:33;;;;;;;17.50;7.10;;;;;;;8.49;56.09;93310.22;2054721;69;20138;-75
2022/12/28 10:41:05;;;;;;;11.23;6.78;;;;;;;8.81;55.14;93298.69;2054475;69;20546;-76
2022/12/28 10:43:34;;;;;;;10.95;6.35;;;;;;;9.20;54.01;93306.50;2053975;69;20145;-73
2022/12/28 10:46:02;;;;;;;14.18;7.30;;;;;;;7.70;52.68;93304.66;2054678;69;20150;-74
2022/12/28 10:48:33;;;;;;;12.25;6.38;;;;;;;7.51;54.43;93297.56;2054647;69;20134;-75
2022/12/28 10:51:18;;;;;;;7.13;4.43;;;;;;;9.81;52.52;93302.59;2054090;70;20146;-75
2022/12/28 10:53:45;;;;;;;7.95;5.30;;;;;;;11.24;51.51;93296.44;2056115;69;20228;-76
2022/12/28 10:56:11;;;;;;;5.35;3.97;;;;;;;11.75;46.00;93290.63;2057792;69;20181;-73
2022/12/28 10:58:37;;;;;;;11.57;6.05;;;;;;;10.87;49.30;93282.69;2057995;69;20137;-76
2022/12/28 11:01:11;;;;;;;12.27;7.18;;;;;;;13.34;47.68;93275.19;2058011;69;20150;-76
2022/12/28 11:03:39;;;;;;;7.07;4.50;;;;;;;14.18;43.64;93269.44;2056362;69;20174;-75
2022/12/28 11:06:14;;;;;;;12.70;6.30;;;;;;;15.30;42.44;93269.13;2054732;69;20145;-76
2022/12/28 11:08:42;;;;;;;35.10;21.90;;;;;;;15.28;39.38;93266.19;2057196;69;20173;-76
2022/12/28 11:11:20;;;;;;;24.30;12.77;;;;;;;13.17;40.57;93271.38;2057960;69;20154;-75
2022/12/28 11:13:54;;;;;;;24.42;14.20;;;;;;;12.40;42.69;93258.88;2057731;69;20205;-75
2022/12/28 11:16:20;;;;;;;36.10;20.63;;;;;;;12.24;44.11;93254.31;2057165;69;20704;-73
2022/12/28 11:18:47;;;;;;;19.77;10.82;;;;;;;11.60;44.72;93241.03;2057256;69;20150;-77
2022/12/28 11:21:18;;;;;;;17.75;10.18;;;;;;;11.39;44.89;93242.50;2054915;69;20197;-76
2022/12/28 11:23:45;;;;;;;21.05;13.23;;;;;;;10.82;46.42;93244.31;2055419;69;20166;-76
2022/12/28 11:26:11;;;;;;;51.08;27.88;;;;;;;11.15;46.52;93232.44;2055517;69;20150;-77
2022/12/28 11:28:41;;;;;;;53.30;26.73;;;;;;;9.51;47.35;93231.56;2055509;69;20142;-75
2022/12/28 11:31:13;;;;;;;23.98;14.95;;;;;;;9.99;47.91;93216.72;2055034;70;20614;-75
2022/12/28 11:33:41;;;;;;;41.35;23.42;;;;;;;10.13;48.66;93226.16;2058683;69;20161;-76
2022/12/28 11:36:16;;;;;;;25.70;13.25;;;;;;;9.92;49.72;93228.84;2058962;69;20521;-75
2022/12/28 11:38:44;;;;;;;22.08;10.63;;;;;;;9.66;50.45;93217.19;2058301;69;20178;-75
2022/12/28 11:41:22;;;;;;;19.88;11.85;;;;;;;9.31;49.84;93221.66;2055708;69;20260;-75
2022/12/28 11:43:49;;;;;;;15.43;10.82;;;;;;;8.11;52.97;93214.06;2054867;69;20138;-76
2022/12/28 11:46:20;;;;;;;10.90;7.75;;;;;;;8.72;52.75;93203.97;2054536;69;20236;-78
2022/12/28 11:49:21;;;;;;;5.47;3.65;;;;;;;8.79;52.20;93188.31;2055898;69;20238;-75
2022/12/28 11:51:46;;;;;;;7.95;4.70;;;;;;;8.87;51.14;93184.03;2057827;69;20514;-77
2022/12/28 11:54:33;;;;;;;7.32;4.80;;;;;;;8.77;51.96;93174.88;2057614;69;20188;-75
2022/12/28 11:56:59;;;;;;;11.18;5.55;;;;;;;8.49;52.42;93170.66;2057689;69;20154;-75
2022/12/28 11:59:31;;;;;;;6.28;4.28;;;;;;;7.28;53.38;93174.56;2057774;69;20150;-74
2022/12/28 12:02:24;;;;;;;8.20;5.22;;;;;;;7.62;54.63;93164.66;2060012;69;20304;-77
2022/12/28 12:04:50;;;;;;;9.55;5.78;;;;;;;7.90;53.12;93166.13;2053267;69;20590;-74
2022/12/28 12:07:15;;;;;;;9.48;4.85;;;;;;;7.71;53.97;93155.56;2054433;69;20225;-76
2022/12/28 12:09:44;;;;;;;8.13;4.45;;;;;;;7.55;54.18;93151.47;2054343;69;20146;-75
2022/12/28 12:12:13;;;;;;;7.25;4.65;;;;;;;7.03;56.59;93159.94;2054316;69;20275;-75
2022/12/28 12:14:41;;;;;;;13.23;7.90;;;;;;;7.17;56.28;93149.88;2054395;69;20142;-74
2022/12/28 12:17:15;;;;;;;10.50;6.80;;;;;;;7.23;56.56;93149.63;2054352;69;20487;-75